createdAt,value
2022-08-29T00:01:50.563Z,101490.00
2022-08-29T00:04:17.557Z,101490.00
2022-08-29T00:06:49.031Z,101486.41
2022-08-29T00:09:18.137Z,101488.94
2022-08-29T00:11:46.774Z,101487.47
2022-08-29T00:14:20.857Z,101488.75
2022-08-29T00:16:50.788Z,101489.19
2022-08-29T00:19:18.067Z,101487.03
2022-08-29T00:21:44.910Z,101481.13
2022-08-29T00:24:11.748Z,101481.97
2022-08-29T00:26:38.776Z,101480.06
2022-08-29T00:29:05.740Z,101477.28
2022-08-29T00:31:35.120Z,101481.53
2022-08-29T00:34:06.577Z,101474.75
2022-08-29T00:36:33.674Z,101481.94
2022-08-29T00:39:04.604Z,101482.81
2022-08-29T00:41:36.379Z,101472.44
2022-08-29T00:44:05.583Z,101490.44
2022-08-29T00:46:41.296Z,101477.28
2022-08-29T00:49:41.152Z,101487.78
2022-08-29T00:52:37.375Z,101488.69
2022-08-29T00:55:16.509Z,101487.00
2022-08-29T00:57:55.425Z,101481.34
2022-08-29T01:00:25.035Z,101481.53
2022-08-29T01:02:54.964Z,101482.81
2022-08-29T01:05:24.862Z,101499.53
2022-08-29T01:07:56.846Z,101491.69
2022-08-29T01:10:42.792Z,101488.72
2022-08-29T01:13:13.032Z,101490.00
2022-08-29T01:15:41.608Z,101487.66
2022-08-29T01:20:53.756Z,101483.22
2022-08-29T01:23:42.337Z,101482.38
2022-08-29T01:26:14.233Z,101486.59
2022-08-29T01:28:52.075Z,101492.53
2022-08-29T01:31:46.994Z,101488.91
2022-08-29T01:34:20.989Z,101494.59
2022-08-29T01:37:01.873Z,101498.03
2022-08-29T01:39:34.721Z,101498.47
2022-08-29T01:42:10.702Z,101507.56
2022-08-29T01:44:39.298Z,101501.03
2022-08-29T01:47:08.797Z,101498.28
2022-08-29T01:49:40.964Z,101497.84
2022-08-29T01:52:09.643Z,101496.97
2022-08-29T01:54:36.803Z,101496.78
2022-08-29T01:57:03.827Z,101504.81
2022-08-29T01:59:33.455Z,101503.53
2022-08-29T02:02:05.321Z,101505.63
2022-08-29T02:04:32.989Z,101509.88
2022-08-29T02:07:00.434Z,101506.09
2022-08-29T02:09:29.018Z,101502.72
2022-08-29T02:11:58.241Z,101505.88
2022-08-29T02:14:30.497Z,101505.19
2022-08-29T02:16:59.562Z,101497.63
2022-08-29T02:19:26.560Z,101496.97
2022-08-29T02:21:56.145Z,101498.28
2022-08-29T02:24:26.083Z,101496.78
2022-08-29T02:26:55.961Z,101506.91
2022-08-29T02:29:23.740Z,101504.38
2022-08-29T02:31:55.501Z,101502.69
2022-08-29T02:34:23.331Z,101502.88
2022-08-29T02:36:56.102Z,101496.78
2022-08-29T02:39:23.294Z,101501.44
2022-08-29T02:41:50.170Z,101497.00
2022-08-29T02:44:20.464Z,101495.50
2022-08-29T02:46:48.739Z,101503.94
2022-08-29T02:49:15.761Z,101496.53
2022-08-29T02:51:42.794Z,101507.53
2022-08-29T02:54:12.998Z,101504.41
2022-08-29T02:56:42.602Z,101511.16
2022-08-29T02:59:09.714Z,101506.28
2022-08-29T03:01:39.015Z,101497.19
2022-08-29T03:04:08.617Z,101503.75
2022-08-29T03:06:35.763Z,101506.69
2022-08-29T03:09:03.131Z,101503.53
2022-08-29T03:11:31.107Z,101507.75
2022-08-29T03:13:58.150Z,101504.56
2022-08-29T03:16:28.327Z,101501.00
2022-08-29T03:18:58.299Z,101503.50
2022-08-29T03:21:27.453Z,101498.88
2022-08-29T03:23:56.457Z,101504.78
2022-08-29T03:26:24.470Z,101502.22
2022-08-29T03:28:51.613Z,101501.59
2022-08-29T03:31:19.148Z,101504.78
2022-08-29T03:33:46.244Z,101499.25
2022-08-29T03:36:14.241Z,101502.03
2022-08-29T03:38:46.451Z,101506.75
2022-08-29T03:41:27.056Z,101508.91
2022-08-29T03:43:55.505Z,101497.38
2022-08-29T03:46:27.712Z,101497.63
2022-08-29T03:51:21.889Z,101491.69
2022-08-29T03:53:48.783Z,101487.41
2022-08-29T03:56:18.414Z,101489.09
2022-08-29T03:58:51.887Z,101496.44
2022-08-29T04:01:25.225Z,101493.13
2022-08-29T04:03:54.032Z,101492.53
2022-08-29T04:06:28.229Z,101492.53
2022-08-29T04:08:59.173Z,101495.50
2022-08-29T04:11:29.893Z,101497.41
2022-08-29T04:13:59.401Z,101500.59
2022-08-29T04:16:30.823Z,101494.66
2022-08-29T04:18:58.584Z,101493.59
2022-08-29T04:21:25.994Z,101495.91
2022-08-29T04:23:54.298Z,101507.56
2022-08-29T04:26:37.814Z,101499.31
2022-08-29T04:29:08.115Z,101494.22
2022-08-29T04:31:39.195Z,101507.22
2022-08-29T04:34:12.059Z,101509.50
2022-08-29T04:36:42.569Z,101510.78
2022-08-29T04:39:10.460Z,101504.22
2022-08-29T04:41:41.038Z,101509.72
2022-08-29T04:44:11.913Z,101520.50
2022-08-29T04:46:39.934Z,101514.63
2022-08-29T04:49:09.422Z,101508.06
2022-08-29T04:51:38.984Z,101513.38
2022-08-29T04:54:11.428Z,101514.91
2022-08-29T04:56:38.900Z,101520.56
2022-08-29T04:59:14.577Z,101522.03
2022-08-29T05:01:42.538Z,101535.59
2022-08-29T05:04:13.821Z,101534.28
2022-08-29T05:06:41.953Z,101542.63
2022-08-29T05:09:08.905Z,101540.28
2022-08-29T05:11:35.834Z,101543.47
2022-08-29T05:14:02.686Z,101546.09
2022-08-29T05:16:31.190Z,101538.28
2022-08-29T05:18:59.688Z,101546.09
2022-08-29T05:21:35.031Z,101548.28
2022-08-29T05:24:06.114Z,101560.09
2022-08-29T05:26:40.538Z,101545.78
2022-08-29T05:29:12.465Z,101550.72
2022-08-29T05:31:45.294Z,101551.31
2022-08-29T05:34:34.295Z,101553.22
2022-08-29T05:37:05.249Z,101561.47
2022-08-29T05:39:33.236Z,101554.28
2022-08-29T05:42:00.568Z,101562.94
2022-08-29T05:44:32.908Z,101561.06
2022-08-29T05:47:07.329Z,101563.63
2022-08-29T05:49:37.543Z,101560.03
2022-08-29T05:52:05.970Z,101553.94
2022-08-29T05:54:41.482Z,101554.81
2022-08-29T05:57:18.684Z,101553.13
2022-08-29T05:59:51.103Z,101559.00
2022-08-29T06:02:25.280Z,101567.09
2022-08-29T06:04:52.879Z,101568.38
2022-08-29T06:07:20.158Z,101567.75
2022-08-29T06:09:47.388Z,101573.03
2022-08-29T06:12:18.066Z,101584.06
2022-08-29T06:14:50.607Z,101578.13
2022-08-29T06:17:18.039Z,101576.69
2022-08-29T06:19:44.944Z,101577.31
2022-08-29T06:22:16.556Z,101579.19
2022-08-29T06:24:45.221Z,101583.63
2022-08-29T06:27:16.797Z,101578.59
2022-08-29T06:29:44.016Z,101588.34
2022-08-29T06:32:16.303Z,101579.84
2022-08-29T06:34:43.221Z,101584.50
2022-08-29T06:37:10.472Z,101591.28
2022-08-29T06:39:37.372Z,101590.22
2022-08-29T06:42:05.574Z,101592.56
2022-08-29T06:44:32.600Z,101587.47
2022-08-29T06:47:04.354Z,101590.84
2022-08-29T06:49:33.364Z,101590.41
2022-08-29T06:52:00.372Z,101585.53
2022-08-29T06:54:30.014Z,101594.47
2022-08-29T06:56:59.683Z,101592.50
2022-08-29T06:59:27.362Z,101592.03
2022-08-29T07:01:55.492Z,101586.06
2022-08-29T07:04:22.563Z,101584.56
2022-08-29T07:06:53.283Z,101595.59
2022-08-29T07:09:23.131Z,101595.16
2022-08-29T07:11:50.042Z,101598.09
2022-08-29T07:14:16.947Z,101599.78
2022-08-29T07:16:43.910Z,101605.31
2022-08-29T07:19:11.342Z,101605.38
2022-08-29T07:21:41.340Z,101599.66
2022-08-29T07:24:08.727Z,101601.84
2022-08-29T07:26:43.358Z,101605.94
2022-08-29T07:29:18.777Z,101602.78
2022-08-29T07:31:47.489Z,101603.16
2022-08-29T07:34:14.749Z,101607.00
2022-08-29T07:36:41.729Z,101605.34
2022-08-29T07:39:16.567Z,101611.16
2022-08-29T07:41:44.885Z,101611.19
2022-08-29T07:44:13.465Z,101615.38
2022-08-29T07:46:40.962Z,101611.88
2022-08-29T07:49:08.267Z,101609.00
2022-08-29T07:51:35.810Z,101616.31
2022-08-29T07:54:04.595Z,101621.06
2022-08-29T07:56:38.249Z,101615.34
2022-08-29T07:59:06.161Z,101635.78
2022-08-29T08:01:38.276Z,101625.16
2022-08-29T08:04:06.773Z,101619.59
2022-08-29T08:06:38.196Z,101619.94
2022-08-29T08:09:07.895Z,101629.84
2022-08-29T08:11:36.442Z,101629.47
2022-08-29T08:14:06.198Z,101628.34
2022-08-29T08:16:33.798Z,101630.03
2022-08-29T08:19:03.999Z,101632.50
2022-08-29T08:21:30.944Z,101630.66
2022-08-29T08:24:00.646Z,101640.25
2022-08-29T08:26:27.800Z,101643.47
2022-08-29T08:28:55.359Z,101650.06
2022-08-29T08:31:22.859Z,101646.84
2022-08-29T08:33:50.012Z,101643.38
2022-08-29T08:36:31.250Z,101641.44
2022-08-29T08:39:00.123Z,101647.03
2022-08-29T08:41:49.520Z,101648.13
2022-08-29T08:44:22.420Z,101649.94
2022-08-29T08:46:55.556Z,101655.03
2022-08-29T08:49:47.931Z,101651.56
2022-08-29T08:52:22.371Z,101647.19
2022-08-29T08:55:28.478Z,101656.59
2022-08-29T08:58:29.157Z,101660.00
2022-08-29T09:01:01.608Z,101658.06
2022-08-29T09:04:17.668Z,101650.91
2022-08-29T09:07:09.925Z,101658.69
2022-08-29T09:10:25.990Z,101651.75
2022-08-29T09:13:26.127Z,101653.97
2022-08-29T09:15:56.830Z,101658.25
2022-08-29T09:18:40.916Z,101652.06
2022-08-29T09:21:39.981Z,101658.00
2022-08-29T09:24:13.218Z,101654.53
2022-08-29T09:26:40.866Z,101655.56
2022-08-29T09:29:09.859Z,101653.09
2022-08-29T09:31:37.623Z,101661.78
2022-08-29T09:34:11.836Z,101659.69
2022-08-29T09:36:56.310Z,101656.63
2022-08-29T09:39:31.285Z,101664.00
2022-08-29T09:42:21.696Z,101660.97
2022-08-29T09:44:58.632Z,101661.06
2022-08-29T09:47:32.969Z,101652.06
2022-08-29T09:50:26.727Z,101662.97
2022-08-29T09:53:01.165Z,101662.66
2022-08-29T09:55:32.554Z,101668.22
2022-08-29T09:58:07.614Z,101660.88
2022-08-29T10:00:46.170Z,101660.03
2022-08-29T10:03:24.645Z,101671.00
2022-08-29T10:06:28.091Z,101662.78
2022-08-29T10:09:12.571Z,101660.03
2022-08-29T10:11:56.196Z,101660.25
2022-08-29T10:14:35.526Z,101674.56
2022-08-29T10:17:25.430Z,101663.84
2022-08-29T10:19:52.434Z,101660.44
2022-08-29T10:22:36.681Z,101664.44
2022-08-29T10:25:25.221Z,101653.81
2022-08-29T10:28:00.513Z,101655.75
2022-08-29T10:31:08.812Z,101664.88
2022-08-29T10:34:13.818Z,101673.78
2022-08-29T10:36:47.260Z,101664.72
2022-08-29T10:39:18.086Z,101666.63
2022-08-29T10:41:50.273Z,101670.13
2022-08-29T10:44:40.223Z,101671.16
2022-08-29T10:47:26.937Z,101677.53
2022-08-29T10:50:43.078Z,101675.97
2022-08-29T10:53:14.710Z,101670.28
2022-08-29T10:55:59.555Z,101670.34
2022-08-29T10:58:57.005Z,101666.94
2022-08-29T11:01:40.827Z,101670.03
2022-08-29T11:04:18.034Z,101685.63
2022-08-29T11:06:51.618Z,101674.72
2022-08-29T11:09:28.908Z,101673.47
2022-08-29T11:12:28.257Z,101674.53
2022-08-29T11:15:29.422Z,101672.41
2022-08-29T11:18:06.204Z,101666.38
2022-08-29T11:20:40.956Z,101677.34
2022-08-29T11:23:41.808Z,101660.41
2022-08-29T11:26:27.484Z,101668.91
2022-08-29T11:29:25.343Z,101657.28
2022-08-29T11:32:36.297Z,101663.97
2022-08-29T11:35:20.443Z,101678.09
2022-08-29T11:37:56.334Z,101677.59
2022-08-29T11:41:27.165Z,101676.41
2022-08-29T11:44:24.948Z,101678.69
2022-08-29T11:46:53.068Z,101685.09
2022-08-29T11:49:38.259Z,101682.50
2022-08-29T11:52:11.500Z,101687.00
2022-08-29T11:54:39.966Z,101678.81
2022-08-29T11:57:09.926Z,101687.84
2022-08-29T11:59:48.632Z,101672.53
2022-08-29T12:02:30.806Z,101682.78
2022-08-29T12:05:02.009Z,101684.69
2022-08-29T12:07:54.917Z,101672.34
2022-08-29T12:10:24.215Z,101679.38
2022-08-29T12:13:00.617Z,101677.44
2022-08-29T12:15:27.374Z,101679.63
2022-08-29T12:18:13.453Z,101684.09
2022-08-29T12:20:50.520Z,101679.59
2022-08-29T12:23:33.885Z,101680.69
2022-08-29T12:26:22.882Z,101676.78
2022-08-29T12:29:10.542Z,101673.94
2022-08-29T12:32:24.403Z,101669.72
2022-08-29T12:35:27.246Z,101682.88
2022-08-29T12:38:28.620Z,101673.75
2022-08-29T12:41:40.894Z,101681.50
2022-08-29T12:44:16.569Z,101674.47
2022-08-29T12:46:46.803Z,101684.78
2022-08-29T12:49:18.788Z,101677.97
2022-08-29T12:51:55.978Z,101681.81
2022-08-29T12:54:37.825Z,101679.16
2022-08-29T12:57:21.440Z,101685.63
2022-08-29T12:59:54.445Z,101679.59
2022-08-29T13:02:32.480Z,101676.44
2022-08-29T13:04:59.879Z,101675.69
2022-08-29T13:07:32.863Z,101668.84
2022-08-29T13:10:03.775Z,101670.63
2022-08-29T13:12:36.053Z,101665.53
2022-08-29T13:15:20.593Z,101661.19
2022-08-29T13:17:51.248Z,101658.06
2022-08-29T13:20:40.377Z,101659.47
2022-08-29T13:23:16.318Z,101658.38
2022-08-29T13:26:12.684Z,101658.88
2022-08-29T13:28:43.479Z,101659.19
2022-08-29T13:31:16.234Z,101661.13
2022-08-29T13:33:47.939Z,101656.69
2022-08-29T13:36:42.335Z,101667.91
2022-08-29T13:39:19.050Z,101665.66
2022-08-29T13:41:51.317Z,101657.84
2022-08-29T13:44:21.858Z,101655.84
2022-08-29T13:46:51.480Z,101660.03
2022-08-29T13:49:33.613Z,101658.91
2022-08-29T13:52:01.833Z,101662.25
2022-08-29T13:54:39.227Z,101650.94
2022-08-29T13:57:07.966Z,101648.13
2022-08-29T13:59:36.904Z,101645.41
2022-08-29T14:02:09.318Z,101650.28
2022-08-29T14:04:41.212Z,101646.13
2022-08-29T14:07:19.789Z,101633.88
2022-08-29T14:09:50.183Z,101646.63
2022-08-29T14:12:18.324Z,101644.28
2022-08-29T14:14:46.076Z,101649.91
2022-08-29T14:17:18.872Z,101647.09
2022-08-29T14:19:47.290Z,101644.50
2022-08-29T14:22:14.875Z,101645.75
2022-08-29T14:24:42.568Z,101640.09
2022-08-29T14:27:12.217Z,101639.19
2022-08-29T14:29:41.152Z,101639.38
2022-08-29T14:32:12.779Z,101640.72
2022-08-29T14:34:49.274Z,101644.06
2022-08-29T14:37:22.079Z,101633.56
2022-08-29T14:39:49.862Z,101640.94
2022-08-29T14:42:18.653Z,101642.78
2022-08-29T14:44:46.255Z,101643.59
2022-08-29T14:47:13.478Z,101647.19
2022-08-29T14:49:43.831Z,101647.00
2022-08-29T14:52:17.016Z,101649.13
2022-08-29T14:54:43.953Z,101639.09
2022-08-29T14:57:12.432Z,101644.44
2022-08-29T14:59:40.517Z,101644.75
2022-08-29T15:02:10.337Z,101636.47
2022-08-29T15:04:39.696Z,101643.88
2022-08-29T15:07:10.315Z,101640.31
2022-08-29T15:09:41.721Z,101651.69
2022-08-29T15:12:11.002Z,101658.22
2022-08-29T15:14:42.572Z,101654.16
2022-08-29T15:17:10.300Z,101660.56
2022-08-29T15:20:31.554Z,101661.25
2022-08-29T15:22:28.520Z,101645.25
2022-08-29T15:24:57.865Z,101641.03
2022-08-29T15:27:27.643Z,101642.47
2022-08-29T15:29:57.898Z,101644.97
2022-08-29T15:32:25.059Z,101654.56
2022-08-29T15:34:54.688Z,101646.19
2022-08-29T15:37:22.378Z,101649.00
2022-08-29T15:39:54.434Z,101650.50
2022-08-29T15:42:30.339Z,101651.91
2022-08-29T15:45:02.423Z,101652.66
2022-08-29T15:47:35.145Z,101651.56
2022-08-29T15:50:04.535Z,101651.41
2022-08-29T15:52:31.462Z,101650.84
2022-08-29T15:54:58.532Z,101649.25
2022-08-29T15:57:28.114Z,101658.31
2022-08-29T15:59:58.054Z,101657.97
2022-08-29T16:02:27.094Z,101655.03
2022-08-29T16:04:57.023Z,101656.75
2022-08-29T16:07:29.632Z,101652.91
2022-08-29T16:10:04.801Z,101664.59
2022-08-29T16:12:39.042Z,101654.72
2022-08-29T16:15:09.644Z,101659.53
2022-08-29T16:17:37.201Z,101653.25
2022-08-29T16:20:11.521Z,101658.81
2022-08-29T16:22:40.084Z,101662.66
2022-08-29T16:25:11.974Z,101659.59
2022-08-29T16:27:39.445Z,101662.53
2022-08-29T16:30:09.812Z,101661.94
2022-08-29T16:32:37.804Z,101665.19
2022-08-29T16:35:06.367Z,101664.72
2022-08-29T16:37:33.870Z,101667.25
2022-08-29T16:40:03.705Z,101668.09
2022-08-29T16:42:31.076Z,101670.63
2022-08-29T16:44:59.779Z,101663.63
2022-08-29T16:47:27.911Z,101667.84
2022-08-29T16:49:54.783Z,101677.72
2022-08-29T16:52:21.972Z,101681.50
2022-08-29T16:54:53.662Z,101686.19
2022-08-29T16:57:23.759Z,101678.38
2022-08-29T16:59:50.789Z,101684.38
2022-08-29T17:02:23.257Z,101677.16
2022-08-29T17:04:50.255Z,101681.75
2022-08-29T17:07:19.994Z,101686.53
2022-08-29T17:09:48.999Z,101680.09
2022-08-29T17:12:16.313Z,101683.81
2022-08-29T17:14:43.285Z,101682.50
2022-08-29T17:17:17.261Z,101683.03
2022-08-29T17:19:44.666Z,101691.69
2022-08-29T17:22:15.764Z,101689.47
2022-08-29T17:24:49.234Z,101685.69
2022-08-29T17:27:21.593Z,101682.59
2022-08-29T17:29:51.604Z,101687.84
2022-08-29T17:32:18.606Z,101689.13
2022-08-29T17:34:47.906Z,101686.94
2022-08-29T17:37:15.079Z,101697.81
2022-08-29T17:39:42.064Z,101695.69
2022-08-29T17:42:09.326Z,101706.69
2022-08-29T17:47:17.251Z,101707.09
2022-08-29T17:49:45.038Z,101703.88
2022-08-29T17:52:14.375Z,101710.25
2022-08-29T17:54:41.318Z,101702.28
2022-08-29T17:57:10.474Z,101708.41
2022-08-29T17:59:37.535Z,101701.88
2022-08-29T18:02:05.292Z,101707.59
2022-08-29T18:04:32.513Z,101702.28
2022-08-29T18:07:02.687Z,101700.97
2022-08-29T18:09:31.752Z,101702.28
2022-08-29T18:12:00.546Z,101715.66
2022-08-29T18:14:30.610Z,101709.53
2022-08-29T18:17:02.014Z,101709.59
2022-08-29T18:19:31.809Z,101713.22
2022-08-29T18:22:00.007Z,101709.25
2022-08-29T18:24:26.994Z,101716.53
2022-08-29T18:26:56.169Z,101713.72
2022-08-29T18:29:25.280Z,101710.72
2022-08-29T18:31:52.181Z,101724.38
2022-08-29T18:34:19.952Z,101724.38
2022-08-29T18:36:47.774Z,101723.56
2022-08-29T18:39:16.456Z,101721.66
2022-08-29T18:41:48.509Z,101726.13
2022-08-29T18:44:15.589Z,101736.31
2022-08-29T18:46:48.193Z,101733.75
2022-08-29T18:49:16.385Z,101728.66
2022-08-29T18:51:47.055Z,101735.25
2022-08-29T18:54:19.099Z,101737.97
2022-08-29T18:56:50.925Z,101751.59
2022-08-29T18:59:24.281Z,101748.38
2022-08-29T19:01:53.750Z,101749.44
2022-08-29T19:04:25.179Z,101751.13
2022-08-29T19:06:52.597Z,101750.50
2022-08-29T19:09:20.070Z,101742.66
2022-08-29T19:11:46.996Z,101744.13
2022-08-29T19:14:14.160Z,101756.00
2022-08-29T19:16:41.626Z,101746.47
2022-08-29T19:19:13.176Z,101754.94
2022-08-29T19:21:42.953Z,101763.00
2022-08-29T19:24:12.328Z,101755.38
2022-08-29T19:26:40.101Z,101748.16
2022-08-29T19:29:16.979Z,101752.81
2022-08-29T19:31:47.090Z,101754.50
2022-08-29T19:34:14.048Z,101757.47
2022-08-29T19:36:46.952Z,101756.63
2022-08-29T19:39:14.609Z,101751.13
2022-08-29T19:41:44.470Z,101751.97
2022-08-29T19:44:11.437Z,101757.03
2022-08-29T19:46:42.590Z,101751.06
2022-08-29T19:49:13.334Z,101757.22
2022-08-29T19:51:40.510Z,101749.78
2022-08-29T19:54:08.516Z,101758.50
2022-08-29T19:56:35.592Z,101760.34
2022-08-29T19:59:09.090Z,101757.00
2022-08-29T20:01:38.446Z,101760.41
2022-08-29T20:04:08.006Z,101766.75
2022-08-29T20:06:37.623Z,101763.78
2022-08-29T20:09:07.320Z,101762.09
2022-08-29T20:11:34.712Z,101759.78
2022-08-29T20:14:11.298Z,101768.00
2022-08-29T20:16:44.951Z,101768.44
2022-08-29T20:19:15.644Z,101756.56
2022-08-29T20:21:44.993Z,101771.59
2022-08-29T20:24:15.465Z,101767.16
2022-08-29T20:26:44.769Z,101771.16
2022-08-29T20:29:12.688Z,101764.19
2022-08-29T20:31:40.403Z,101767.47
2022-08-29T20:34:07.400Z,101763.09
2022-08-29T20:37:09.826Z,101761.75
2022-08-29T20:39:48.696Z,101773.50
2022-08-29T20:42:24.770Z,101770.50
2022-08-29T20:44:55.383Z,101781.88
2022-08-29T20:47:26.451Z,101776.13
2022-08-29T20:49:55.951Z,101767.41
2022-08-29T20:52:24.327Z,101777.13
2022-08-29T20:54:51.925Z,101774.56
2022-08-29T20:57:19.131Z,101781.16
2022-08-29T20:59:48.360Z,101786.84
2022-08-29T21:02:19.437Z,101778.34
2022-08-29T21:05:05.138Z,101777.50
2022-08-29T21:07:34.287Z,101781.13
2022-08-29T21:10:01.866Z,101784.09
2022-08-29T21:12:29.193Z,101785.78
2022-08-29T21:14:56.201Z,101784.50
2022-08-29T21:17:25.272Z,101774.94
2022-08-29T21:19:54.675Z,101777.06
2022-08-29T21:22:24.794Z,101780.94
2022-08-29T21:24:55.138Z,101784.16
2022-08-29T21:27:22.167Z,101783.44
2022-08-29T21:29:55.499Z,101785.72
2022-08-29T21:32:22.579Z,101792.59
2022-08-29T21:34:49.906Z,101786.03
2022-08-29T21:37:17.075Z,101782.66
2022-08-29T21:39:47.681Z,101778.44
2022-08-29T21:42:14.744Z,101781.19
2022-08-29T21:44:43.968Z,101786.94
2022-08-29T21:47:14.761Z,101783.22
2022-08-29T21:49:44.131Z,101783.28
2022-08-29T21:52:15.539Z,101778.31
2022-08-29T21:54:42.456Z,101783.44
2022-08-29T21:57:18.108Z,101784.06
2022-08-29T21:59:48.544Z,101786.56
2022-08-29T22:02:17.436Z,101788.84
2022-08-29T22:04:47.329Z,101786.38
2022-08-29T22:07:16.420Z,101786.66
2022-08-29T22:09:46.738Z,101790.06
2022-08-29T22:12:13.615Z,101786.66
2022-08-29T22:14:58.906Z,101785.22
2022-08-29T22:17:25.798Z,101788.06
2022-08-29T22:19:52.792Z,101790.56
2022-08-29T22:22:19.755Z,101787.69
2022-08-29T22:24:49.472Z,101784.78
2022-08-29T22:27:16.391Z,101781.72
2022-08-29T22:29:43.815Z,101788.78
2022-08-29T22:32:14.045Z,101782.31
2022-08-29T22:34:44.080Z,101788.50
2022-08-29T22:37:11.394Z,101792.00
2022-08-29T22:39:38.382Z,101787.16
2022-08-29T22:42:07.886Z,101786.88
2022-08-29T22:45:02.131Z,101795.53
2022-08-29T22:47:25.735Z,101788.31
2022-08-29T22:49:53.489Z,101790.28
2022-08-29T22:52:21.485Z,101791.59
2022-08-29T22:54:52.941Z,101790.97
2022-08-29T22:57:19.931Z,101796.19
2022-08-29T22:59:49.927Z,101775.56
2022-08-29T23:02:23.349Z,101786.03
2022-08-29T23:04:53.209Z,101779.63
2022-08-29T23:07:22.361Z,101782.38
2022-08-29T23:09:51.712Z,101782.19
2022-08-29T23:12:19.370Z,101782.97
2022-08-29T23:14:46.663Z,101785.28
2022-08-29T23:17:18.171Z,101788.38
2022-08-29T23:19:45.191Z,101795.69
2022-08-29T23:22:13.836Z,101794.88
2022-08-29T23:24:57.937Z,101791.06
2022-08-29T23:27:32.394Z,101792.56
2022-08-29T23:30:03.502Z,101794.28
2022-08-29T23:32:30.473Z,101788.78
2022-08-29T23:35:01.468Z,101795.16
2022-08-29T23:37:28.765Z,101793.97
2022-08-29T23:39:58.190Z,101795.44
2022-08-29T23:42:25.213Z,101787.91
2022-08-29T23:44:54.682Z,101791.44
2022-08-29T23:47:21.591Z,101786.28
2022-08-29T23:49:51.095Z,101778.72
2022-08-29T23:52:18.100Z,101781.50
2022-08-29T23:54:48.110Z,101787.19
2022-08-29T23:57:15.117Z,101788.06
